Terminal Aerodrome Forecast
Issued by NWS Jackson, MS

Home | Current Version | Previous Version | Text Only | Print | Product List | Glossary On
Versions: 1 2 3 4 5 6 7 8 9 10 11 12
000
FTUS44 KMEG 231700
TAFTUP
TAF
KTUP 231739Z 2318/2418 20006KT P6SM VCTS SCT050CB
     FM240100 21004KT P6SM SCT040 BKN080
     FM240700 34003KT 5SM BR SCT040 BKN200
     FM241300 01006KT P6SM BKN040=

USA.gov is the U.S. government's official web portal to all federal, state and local government web resources and services.